Time;durP1;ratioP1;P1;durP2;ratioP2;P2;SDS_P1;SDS_P2;PMS_P1;PMS_P2;Temp;Humidity;BMP_temperature;BMP_pressure;BME280_temperature;BME280_humidity;BME280_pressure;Samples;Min_cycle;Max_cycle;Signal;HPM_P1;HPM_P2
2022/05/18 00:02:00;;;;;;;0.10;0.10;;;;;;;;;;5095219;28;20032;-82
2022/05/18 00:04:29;;;;;;;0.05;0.05;;;;;;;;;;5094498;28;20020;-92
2022/05/18 00:06:55;;;;;;;0.10;0.10;;;;;;;;;;5095534;28;20044;-89
2022/05/18 00:09:22;;;;;;;0.10;0.10;;;;;;;;;;5093214;28;20454;-86
2022/05/18 00:11:48;;;;;;;0.10;0.10;;;;;;;;;;5092682;28;20032;-86
2022/05/18 00:14:13;;;;;;;0.10;0.10;;;;;;;;;;5093672;28;20365;-85
2022/05/18 00:16:39;;;;;;;0.10;0.10;;;;;;;;;;5093074;28;20028;-88
2022/05/18 00:19:05;;;;;;;0.10;0.10;;;;;;;;;;5093454;28;20024;-88
2022/05/18 00:21:32;;;;;;;0.10;0.10;;;;;;;;;;5092871;28;20058;-84
2022/05/18 00:24:01;;;;;;;0.05;0.05;;;;;;;;;;5093187;28;20027;-86
2022/05/18 00:26:27;;;;;;;0.10;0.10;;;;;;;;;;5093413;28;20455;-86
2022/05/18 00:28:53;;;;;;;0.10;0.10;;;;;;;;;;5092484;28;20028;-87
2022/05/18 00:31:20;;;;;;;0.00;0.00;;;;;;;;;;5073560;28;20148;-84
2022/05/18 00:33:46;;;;;;;0.10;0.10;;;;;;;;;;5073558;28;20017;-85
2022/05/18 00:36:12;;;;;;;0.10;0.10;;;;;;;;;;5072400;28;20032;-84
2022/05/18 00:38:38;;;;;;;0.10;0.10;;;;;;;;;;5073299;28;20021;-85
2022/05/18 00:41:04;;;;;;;0.05;0.05;;;;;;;;;;5080649;28;20050;-85
2022/05/18 00:43:30;;;;;;;0.10;0.10;;;;;;;;;;5093256;28;20031;-83
2022/05/18 00:45:57;;;;;;;0.10;0.10;;;;;;;;;;5093841;28;20028;-84
2022/05/18 00:48:23;;;;;;;0.10;0.10;;;;;;;;;;5089237;28;20039;-85
2022/05/18 00:50:50;;;;;;;0.03;0.03;;;;;;;;;;5072975;28;20028;-85
2022/05/18 00:53:18;;;;;;;0.10;0.10;;;;;;;;;;5071892;28;20457;-86
2022/05/18 00:55:48;;;;;;;0.10;0.10;;;;;;;;;;5073055;28;20020;-85
2022/05/18 00:58:31;;;;;;;0.00;0.00;;;;;;;;;;5073281;28;20090;-85
2022/05/18 01:00:57;;;;;;;0.10;0.10;;;;;;;;;;5073310;28;20036;-85
2022/05/18 01:03:25;;;;;;;0.10;0.10;;;;;;;;;;5072855;28;20039;-84
2022/05/18 01:05:56;;;;;;;0.10;0.10;;;;;;;;;;5072421;28;20024;-84
2022/05/18 01:08:37;;;;;;;0.10;0.10;;;;;;;;;;5072922;28;20032;-84
2022/05/18 01:11:03;;;;;;;0.10;0.10;;;;;;;;;;5072960;28;20036;-83
2022/05/18 01:13:29;;;;;;;0.10;0.10;;;;;;;;;;5072655;28;20036;-79
2022/05/18 01:15:56;;;;;;;0.10;0.10;;;;;;;;;;5071750;28;20029;-83
2022/05/18 01:18:22;;;;;;;0.10;0.10;;;;;;;;;;5075315;28;20391;-86
2022/05/18 01:20:48;;;;;;;0.10;0.10;;;;;;;;;;5091284;28;20020;-86
2022/05/18 01:23:24;;;;;;;0.10;0.10;;;;;;;;;;5079186;28;20095;-83
2022/05/18 01:25:50;;;;;;;0.10;0.10;;;;;;;;;;5092681;28;20024;-86
2022/05/18 01:28:16;;;;;;;0.10;0.10;;;;;;;;;;5092778;28;20484;-85
2022/05/18 01:30:46;;;;;;;0.10;0.10;;;;;;;;;;5091175;28;20021;-82
2022/05/18 01:33:13;;;;;;;0.10;0.10;;;;;;;;;;5091234;28;20028;-85
2022/05/18 01:35:40;;;;;;;0.10;0.10;;;;;;;;;;5092626;28;20034;-88
2022/05/18 01:38:07;;;;;;;0.05;0.05;;;;;;;;;;5092929;28;20021;-88
2022/05/18 01:40:47;;;;;;;0.10;0.10;;;;;;;;;;5091600;28;20059;-89
2022/05/18 01:43:18;;;;;;;0.10;0.10;;;;;;;;;;5091749;28;20128;-87
2022/05/18 01:45:50;;;;;;;0.10;0.10;;;;;;;;;;5091712;28;20060;-89
2022/05/18 01:48:17;;;;;;;0.10;0.10;;;;;;;;;;5093098;28;20027;-89
2022/05/18 01:50:43;;;;;;;0.10;0.10;;;;;;;;;;5092391;28;20086;-89
2022/05/18 01:53:10;;;;;;;0.10;0.10;;;;;;;;;;5092536;28;20020;-89
2022/05/18 01:55:36;;;;;;;0.10;0.10;;;;;;;;;;5092557;28;20102;-89
2022/05/18 01:58:02;;;;;;;0.00;0.00;;;;;;;;;;5092706;28;20027;-86
2022/05/18 02:00:29;;;;;;;0.10;0.10;;;;;;;;;;5091553;28;20024;-87
2022/05/18 02:02:55;;;;;;;0.10;0.10;;;;;;;;;;5091451;28;20032;-87
2022/05/18 02:05:21;;;;;;;0.10;0.10;;;;;;;;;;5091779;28;20027;-86
2022/05/18 02:07:47;;;;;;;0.10;0.10;;;;;;;;;;5091970;28;20036;-87
2022/05/18 02:10:13;;;;;;;0.10;0.10;;;;;;;;;;5074017;28;20400;-88
2022/05/18 02:12:39;;;;;;;0.10;0.10;;;;;;;;;;5071879;28;20388;-86
2022/05/18 02:15:05;;;;;;;0.10;0.10;;;;;;;;;;5070121;28;20029;-86
2022/05/18 02:17:31;;;;;;;0.10;0.10;;;;;;;;;;5071488;28;20484;-84
2022/05/18 02:19:58;;;;;;;0.10;0.10;;;;;;;;;;5081056;28;20357;-84
2022/05/18 02:22:24;;;;;;;0.10;0.10;;;;;;;;;;5091881;28;20032;-85
2022/05/18 02:24:50;;;;;;;0.10;0.10;;;;;;;;;;5091647;28;20027;-85
2022/05/18 02:27:16;;;;;;;0.10;0.10;;;;;;;;;;5091342;28;20423;-85
2022/05/18 02:29:43;;;;;;;0.10;0.10;;;;;;;;;;5091394;28;20023;-86
2022/05/18 02:32:09;;;;;;;0.10;0.10;;;;;;;;;;5091887;28;20030;-87
2022/05/18 02:34:35;;;;;;;0.10;0.10;;;;;;;;;;5090817;28;20384;-90
2022/05/18 02:37:01;;;;;;;0.10;0.10;;;;;;;;;;5092196;28;20539;-89
2022/05/18 02:39:27;;;;;;;0.10;0.10;;;;;;;;;;5075038;28;20032;-85
2022/05/18 02:41:53;;;;;;;0.10;0.10;;;;;;;;;;5070991;28;20085;-84
2022/05/18 02:44:19;;;;;;;0.10;0.10;;;;;;;;;;5071328;28;20035;-85
2022/05/18 02:46:45;;;;;;;0.00;0.00;;;;;;;;;;5071024;28;20035;-87
2022/05/18 02:49:11;;;;;;;0.10;0.10;;;;;;;;;;5071447;28;20055;-87
2022/05/18 02:51:39;;;;;;;0.00;0.00;;;;;;;;;;5071226;28;20024;-85
2022/05/18 02:56:05;;;;;;;0.10;0.10;;;;;;;;;;5086192;28;20028;-86
2022/05/18 02:56:54;;;;;;;0.10;0.10;;;;;;;;;;5091014;28;20507;-85
2022/05/18 02:59:21;;;;;;;0.10;0.10;;;;;;;;;;5089989;28;20476;-85
2022/05/18 03:01:48;;;;;;;0.10;0.10;;;;;;;;;;5091028;28;20050;-87
2022/05/18 03:04:14;;;;;;;0.08;0.08;;;;;;;;;;5091265;28;20038;-86
2022/05/18 03:06:41;;;;;;;0.10;0.10;;;;;;;;;;5091283;28;20032;-87
2022/05/18 03:09:07;;;;;;;0.10;0.10;;;;;;;;;;5089840;28;20035;-87
2022/05/18 03:11:33;;;;;;;0.10;0.10;;;;;;;;;;5091227;28;20430;-87
2022/05/18 03:13:59;;;;;;;0.10;0.10;;;;;;;;;;5090383;28;20050;-79
2022/05/18 03:16:26;;;;;;;0.10;0.10;;;;;;;;;;5091543;28;20020;-86
2022/05/18 03:18:52;;;;;;;0.10;0.10;;;;;;;;;;5090307;28;20020;-88
2022/05/18 03:24:03;;;;;;;0.10;0.10;;;;;;;;;;5090949;28;20077;-86
2022/05/18 03:26:29;;;;;;;0.10;0.10;;;;;;;;;;5086867;28;20020;-79
2022/05/18 03:28:56;;;;;;;0.10;0.10;;;;;;;;;;5074888;28;20032;-86
2022/05/18 03:31:23;;;;;;;0.10;0.10;;;;;;;;;;5075014;28;20031;-86
2022/05/18 03:33:49;;;;;;;0.10;0.10;;;;;;;;;;5073441;28;20534;-88
2022/05/18 03:36:16;;;;;;;0.10;0.10;;;;;;;;;;5075140;28;20468;-88
2022/05/18 03:38:43;;;;;;;0.10;0.10;;;;;;;;;;5086982;28;20028;-87
2022/05/18 03:41:10;;;;;;;0.10;0.10;;;;;;;;;;5095300;28;20032;-87
2022/05/18 03:43:36;;;;;;;0.10;0.10;;;;;;;;;;5095201;28;20027;-83
2022/05/18 03:46:03;;;;;;;0.10;0.10;;;;;;;;;;5094781;28;20046;-83
2022/05/18 03:48:30;;;;;;;0.10;0.10;;;;;;;;;;5093191;28;20373;-81
2022/05/18 03:50:57;;;;;;;0.08;0.08;;;;;;;;;;5094847;28;20031;-84
2022/05/18 03:53:23;;;;;;;0.00;0.00;;;;;;;;;;5094560;28;20035;-84
2022/05/18 03:55:49;;;;;;;0.10;0.10;;;;;;;;;;5094454;28;20562;-83
2022/05/18 03:58:16;;;;;;;0.10;0.10;;;;;;;;;;5093749;28;20059;-89
2022/05/18 04:00:43;;;;;;;0.10;0.10;;;;;;;;;;5094609;28;20016;-87
2022/05/18 04:03:09;;;;;;;0.10;0.10;;;;;;;;;;5088375;28;20033;-86
2022/05/18 04:05:37;;;;;;;0.10;0.10;;;;;;;;;;5074418;28;20023;-89
2022/05/18 04:08:04;;;;;;;0.10;0.10;;;;;;;;;;5074643;28;20115;-86
2022/05/18 04:10:30;;;;;;;0.10;0.10;;;;;;;;;;5074603;28;20024;-87
2022/05/18 04:12:56;;;;;;;0.10;0.10;;;;;;;;;;5089024;28;20483;-85
2022/05/18 04:15:22;;;;;;;0.10;0.10;;;;;;;;;;5094310;28;20112;-85
2022/05/18 04:17:48;;;;;;;0.10;0.10;;;;;;;;;;5094202;28;20024;-86
2022/05/18 04:20:18;;;;;;;0.10;0.10;;;;;;;;;;5093979;28;20103;-86
2022/05/18 04:22:45;;;;;;;0.10;0.10;;;;;;;;;;5093824;28;20024;-85
2022/05/18 04:25:12;;;;;;;0.10;0.10;;;;;;;;;;5093795;28;20024;-85
2022/05/18 04:27:38;;;;;;;0.10;0.10;;;;;;;;;;5091831;28;20036;-85
2022/05/18 04:30:05;;;;;;;0.00;0.00;;;;;;;;;;5094118;28;20499;-86
2022/05/18 04:32:31;;;;;;;0.10;0.10;;;;;;;;;;5093755;28;20024;-84
2022/05/18 04:34:57;;;;;;;0.10;0.10;;;;;;;;;;5094145;28;20035;-84
2022/05/18 04:37:23;;;;;;;0.10;0.10;;;;;;;;;;5090696;28;20408;-85
2022/05/18 04:39:49;;;;;;;0.10;0.10;;;;;;;;;;5093641;28;20031;-86
2022/05/18 04:42:16;;;;;;;0.10;0.10;;;;;;;;;;5093872;28;20081;-85
2022/05/18 04:44:42;;;;;;;0.10;0.10;;;;;;;;;;5093480;28;20103;-85
2022/05/18 04:47:08;;;;;;;0.10;0.10;;;;;;;;;;5074366;28;20404;-86
2022/05/18 04:49:34;;;;;;;0.10;0.10;;;;;;;;;;5073191;28;20048;-88
2022/05/18 04:52:01;;;;;;;0.10;0.10;;;;;;;;;;5073878;28;20059;-87
2022/05/18 04:54:27;;;;;;;0.10;0.10;;;;;;;;;;5074022;28;20025;-89
2022/05/18 04:56:53;;;;;;;0.10;0.10;;;;;;;;;;5073547;28;20392;-91
2022/05/18 04:59:19;;;;;;;0.10;0.10;;;;;;;;;;5084795;28;20043;-88
2022/05/18 05:01:46;;;;;;;0.10;0.10;;;;;;;;;;5093063;28;20453;-88
2022/05/18 05:04:13;;;;;;;0.10;0.10;;;;;;;;;;5092338;28;20032;-87
2022/05/18 05:06:40;;;;;;;0.10;0.10;;;;;;;;;;5092593;28;20032;-93
2022/05/18 05:09:06;;;;;;;0.05;0.05;;;;;;;;;;5095155;28;20020;-92
2022/05/18 05:11:32;;;;;;;0.10;0.10;;;;;;;;;;5096547;28;20028;-88
2022/05/18 05:13:58;;;;;;;0.10;0.10;;;;;;;;;;5095738;28;20044;-93
2022/05/18 05:16:26;;;;;;;0.10;0.10;;;;;;;;;;5094651;28;20471;-86
2022/05/18 05:18:52;;;;;;;0.10;0.10;;;;;;;;;;5094839;28;20089;-93
2022/05/18 05:21:18;;;;;;;0.10;0.10;;;;;;;;;;5094017;28;20036;-88
2022/05/18 05:23:46;;;;;;;0.10;0.10;;;;;;;;;;5087571;28;22074;-81
2022/05/18 05:26:12;;;;;;;0.10;0.10;;;;;;;;;;5096914;28;20475;-83
2022/05/18 05:28:38;;;;;;;0.00;0.00;;;;;;;;;;5090756;28;20016;-86
2022/05/18 05:31:05;;;;;;;0.00;0.00;;;;;;;;;;5092087;28;20032;-86
2022/05/18 05:33:32;;;;;;;0.10;0.10;;;;;;;;;;5092698;28;20031;-87
2022/05/18 05:35:58;;;;;;;0.10;0.10;;;;;;;;;;5093229;28;20028;-85
2022/05/18 05:38:24;;;;;;;0.10;0.10;;;;;;;;;;5091795;28;20474;-84
2022/05/18 05:40:50;;;;;;;0.10;0.10;;;;;;;;;;5090959;28;20416;-87
2022/05/18 05:43:17;;;;;;;0.10;0.10;;;;;;;;;;5092442;28;20032;-87
2022/05/18 05:45:43;;;;;;;0.10;0.10;;;;;;;;;;5077708;28;20031;-87
2022/05/18 05:48:09;;;;;;;0.10;0.10;;;;;;;;;;5072211;28;20086;-85
2022/05/18 05:50:36;;;;;;;0.10;0.10;;;;;;;;;;5070168;28;20054;-84
2022/05/18 05:53:02;;;;;;;0.10;0.10;;;;;;;;;;5072117;28;20025;-85
2022/05/18 05:55:28;;;;;;;0.10;0.10;;;;;;;;;;5072266;28;20017;-83
2022/05/18 05:57:55;;;;;;;0.08;0.08;;;;;;;;;;5071889;28;20025;-86
2022/05/18 06:00:24;;;;;;;0.10;0.10;;;;;;;;;;5072034;28;20048;-85
2022/05/18 06:02:50;;;;;;;0.10;0.10;;;;;;;;;;5084777;28;20032;-85
2022/05/18 06:05:17;;;;;;;0.10;0.10;;;;;;;;;;5092221;28;20126;-83
2022/05/18 06:07:43;;;;;;;0.10;0.10;;;;;;;;;;5091681;28;20028;-82
2022/05/18 06:10:09;;;;;;;0.10;0.10;;;;;;;;;;5090133;28;20538;-85
2022/05/18 06:12:36;;;;;;;0.10;0.10;;;;;;;;;;5091786;28;20020;-84
2022/05/18 06:15:02;;;;;;;0.10;0.10;;;;;;;;;;5092021;28;20024;-84
2022/05/18 06:17:28;;;;;;;0.10;0.10;;;;;;;;;;5092274;28;20024;-85
2022/05/18 06:19:54;;;;;;;0.10;0.10;;;;;;;;;;5092320;28;20127;-87
2022/05/18 06:22:20;;;;;;;0.10;0.10;;;;;;;;;;5093178;28;20065;-89
2022/05/18 06:24:49;;;;;;;0.10;0.10;;;;;;;;;;5092266;28;20020;-90
2022/05/18 06:27:17;;;;;;;0.10;0.10;;;;;;;;;;5092544;28;20391;-90
2022/05/18 06:29:44;;;;;;;0.10;0.10;;;;;;;;;;5092074;28;20027;-88
2022/05/18 06:32:10;;;;;;;0.10;0.10;;;;;;;;;;5091898;28;20507;-87
2022/05/18 06:34:36;;;;;;;0.10;0.10;;;;;;;;;;5071341;28;20050;-86
2022/05/18 06:37:05;;;;;;;0.00;0.00;;;;;;;;;;5071603;28;20032;-86
2022/05/18 06:39:31;;;;;;;0.10;0.10;;;;;;;;;;5072057;28;20029;-91
2022/05/18 06:41:58;;;;;;;0.10;0.10;;;;;;;;;;5071468;28;20447;-91
2022/05/18 06:44:24;;;;;;;0.10;0.10;;;;;;;;;;5070950;28;20024;-91
2022/05/18 06:46:51;;;;;;;0.10;0.10;;;;;;;;;;5072236;28;20048;-91
2022/05/18 06:49:18;;;;;;;0.10;0.10;;;;;;;;;;5072039;28;20097;-88
2022/05/18 06:51:45;;;;;;;0.10;0.10;;;;;;;;;;5072462;28;20055;-86
2022/05/18 06:54:12;;;;;;;0.10;0.10;;;;;;;;;;5071800;28;20017;-89
2022/05/18 06:56:39;;;;;;;0.10;0.10;;;;;;;;;;5071934;28;20495;-89
2022/05/18 06:59:06;;;;;;;0.10;0.10;;;;;;;;;;5075857;28;20023;-89
2022/05/18 07:01:32;;;;;;;0.10;0.10;;;;;;;;;;5091839;28;20044;-88
2022/05/18 07:03:59;;;;;;;0.10;0.10;;;;;;;;;;5081592;28;20025;-87
2022/05/18 07:06:25;;;;;;;0.10;0.10;;;;;;;;;;5087745;28;20036;-90
2022/05/18 07:08:52;;;;;;;0.10;0.10;;;;;;;;;;5090156;28;20073;-89
2022/05/18 07:11:22;;;;;;;0.10;0.10;;;;;;;;;;5093657;28;20028;-87
2022/05/18 07:13:51;;;;;;;0.10;0.10;;;;;;;;;;5094753;28;20020;-87
2022/05/18 07:16:18;;;;;;;0.10;0.10;;;;;;;;;;5095538;28;20115;-88
2022/05/18 07:18:44;;;;;;;0.10;0.10;;;;;;;;;;5095238;28;20056;-87
2022/05/18 07:21:11;;;;;;;0.10;0.10;;;;;;;;;;5095921;28;20032;-94
2022/05/18 07:23:37;;;;;;;0.10;0.10;;;;;;;;;;5094557;28;20032;-89
2022/05/18 07:26:03;;;;;;;0.10;0.10;;;;;;;;;;5096045;28;20034;-91
2022/05/18 07:28:30;;;;;;;0.10;0.10;;;;;;;;;;5094013;28;20024;-79
2022/05/18 07:30:56;;;;;;;0.10;0.10;;;;;;;;;;5095500;28;20373;-78
2022/05/18 07:33:24;;;;;;;0.10;0.10;;;;;;;;;;5095069;28;20533;-80
2022/05/18 07:35:50;;;;;;;0.10;0.10;;;;;;;;;;5094703;28;20067;-79
2022/05/18 07:38:19;;;;;;;0.10;0.10;;;;;;;;;;5094069;28;20039;-82
2022/05/18 07:40:46;;;;;;;0.10;0.10;;;;;;;;;;5080822;28;20052;-78
2022/05/18 07:43:12;;;;;;;0.10;0.10;;;;;;;;;;5087293;28;20016;-79
2022/05/18 07:45:38;;;;;;;0.10;0.10;;;;;;;;;;5115518;28;20387;-92
2022/05/18 07:48:04;;;;;;;0.10;0.10;;;;;;;;;;5115201;28;20024;-90
2022/05/18 07:50:30;;;;;;;0.10;0.10;;;;;;;;;;5095037;28;20024;-91
2022/05/18 07:52:59;;;;;;;0.10;0.10;;;;;;;;;;5095446;28;20028;-93
2022/05/18 07:55:25;;;;;;;0.10;0.10;;;;;;;;;;5094850;28;20044;-89
2022/05/18 07:57:51;;;;;;;0.10;0.10;;;;;;;;;;5094982;28;20598;-92
2022/05/18 08:00:18;;;;;;;0.10;0.10;;;;;;;;;;5095131;28;20035;-86
2022/05/18 08:02:44;;;;;;;0.10;0.10;;;;;;;;;;5094796;28;20035;-83
2022/05/18 08:05:10;;;;;;;0.10;0.10;;;;;;;;;;5092600;28;20492;-90
2022/05/18 08:07:37;;;;;;;0.10;0.10;;;;;;;;;;5094344;28;20050;-88
2022/05/18 08:15:33;;;;;;;0.10;0.10;;;;;;;;;;5074604;28;20098;-91
2022/05/18 08:17:59;;;;;;;0.10;0.10;;;;;;;;;;5074523;28;20025;-80
2022/05/18 08:20:26;;;;;;;0.10;0.10;;;;;;;;;;5076711;28;20464;-77
2022/05/18 08:22:52;;;;;;;0.10;0.10;;;;;;;;;;5103467;28;20024;-78
2022/05/18 08:25:19;;;;;;;0.10;0.10;;;;;;;;;;5093967;28;20028;-80
2022/05/18 08:27:46;;;;;;;0.10;0.10;;;;;;;;;;5092218;28;20024;-77
2022/05/18 08:30:14;;;;;;;0.10;0.10;;;;;;;;;;5092854;28;20024;-82
2022/05/18 08:32:40;;;;;;;0.10;0.10;;;;;;;;;;5088690;28;20431;-77
2022/05/18 08:35:07;;;;;;;0.10;0.10;;;;;;;;;;5081417;28;20029;-78
2022/05/18 08:37:44;;;;;;;0.10;0.10;;;;;;;;;;5073364;28;20052;-78
2022/05/18 08:40:14;;;;;;;0.10;0.10;;;;;;;;;;5090074;28;20028;-79
2022/05/18 08:43:05;;;;;;;0.10;0.10;;;;;;;;;;5114021;28;20088;-79
2022/05/18 08:45:44;;;;;;;0.08;0.08;;;;;;;;;;5112739;28;20030;-82
2022/05/18 08:48:19;;;;;;;0.10;0.10;;;;;;;;;;5108823;28;20080;-89
2022/05/18 08:50:45;;;;;;;0.10;0.10;;;;;;;;;;5114101;28;20053;-78
2022/05/18 08:53:33;;;;;;;0.10;0.10;;;;;;;;;;5112451;28;20019;-78
2022/05/18 08:56:08;;;;;;;0.10;0.10;;;;;;;;;;5109823;28;20028;-77
2022/05/18 08:58:34;;;;;;;0.10;0.10;;;;;;;;;;5093249;28;20024;-77
2022/05/18 09:01:20;;;;;;;0.10;0.10;;;;;;;;;;5091938;28;20084;-77
2022/05/18 09:03:49;;;;;;;0.10;0.10;;;;;;;;;;5099282;28;20052;-78
2022/05/18 09:06:31;;;;;;;0.10;0.10;;;;;;;;;;5088033;28;20035;-77
2022/05/18 09:11:47;;;;;;;0.10;0.10;;;;;;;;;;5092653;28;20124;-77
2022/05/18 09:14:17;;;;;;;0.10;0.10;;;;;;;;;;5093041;28;20027;-78
2022/05/18 09:16:44;;;;;;;0.10;0.10;;;;;;;;;;5092951;28;20024;-80
2022/05/18 09:19:29;;;;;;;0.10;0.10;;;;;;;;;;5085427;28;20103;-78
2022/05/18 09:22:31;;;;;;;0.10;0.10;;;;;;;;;;5071673;28;20427;-78
2022/05/18 09:25:10;;;;;;;0.10;0.10;;;;;;;;;;5046412;28;20021;-77
2022/05/18 09:27:39;;;;;;;0.10;0.10;;;;;;;;;;5087884;28;20051;-77
2022/05/18 09:30:09;;;;;;;0.10;0.10;;;;;;;;;;5095770;28;20028;-82
2022/05/18 09:32:58;;;;;;;0.10;0.10;;;;;;;;;;5082379;28;20024;-85
2022/05/18 09:35:27;;;;;;;0.08;0.08;;;;;;;;;;5071307;28;20056;-76
2022/05/18 09:38:00;;;;;;;0.10;0.10;;;;;;;;;;5076531;28;20028;-80
2022/05/18 09:40:28;;;;;;;0.10;0.10;;;;;;;;;;5091976;28;20086;-77
2022/05/18 09:42:59;;;;;;;0.10;0.10;;;;;;;;;;5091485;28;20028;-81
2022/05/18 09:45:29;;;;;;;0.10;0.10;;;;;;;;;;5091871;28;20028;-77
2022/05/18 09:47:56;;;;;;;0.10;0.10;;;;;;;;;;5071656;28;20032;-78
2022/05/18 09:50:22;;;;;;;0.10;0.10;;;;;;;;;;5088664;28;20024;-79
2022/05/18 09:52:48;;;;;;;0.10;0.10;;;;;;;;;;5092122;28;20099;-88
2022/05/18 09:55:17;;;;;;;0.10;0.10;;;;;;;;;;5092436;28;20039;-82
2022/05/18 09:57:46;;;;;;;0.00;0.00;;;;;;;;;;5087061;28;20053;-80
2022/05/18 10:00:32;;;;;;;0.10;0.10;;;;;;;;;;5071966;28;20042;-85
2022/05/18 10:08:35;;;;;;;0.05;0.05;;;;;;;;;;5092571;28;20120;-80
2022/05/18 10:11:07;;;;;;;0.03;0.03;;;;;;;;;;5089459;28;20062;-78
2022/05/18 10:13:42;;;;;;;0.10;0.10;;;;;;;;;;5087409;28;20048;-85
2022/05/18 10:16:20;;;;;;;0.10;0.10;;;;;;;;;;5097441;28;20032;-87
2022/05/18 10:18:49;;;;;;;0.10;0.10;;;;;;;;;;5102849;28;20023;-83
2022/05/18 10:21:21;;;;;;;0.10;0.10;;;;;;;;;;5090401;28;20040;-87
2022/05/18 10:23:50;;;;;;;0.05;0.05;;;;;;;;;;5097445;28;20020;-82
2022/05/18 10:26:24;;;;;;;0.10;0.10;;;;;;;;;;5097163;28;20137;-81
2022/05/18 10:28:55;;;;;;;0.10;0.10;;;;;;;;;;5091664;28;20066;-84
2022/05/18 10:31:32;;;;;;;0.10;0.10;;;;;;;;;;5091373;28;20020;-86
2022/05/18 10:34:11;;;;;;;0.10;0.10;;;;;;;;;;5090575;28;20407;-86
2022/05/18 10:36:42;;;;;;;0.10;0.10;;;;;;;;;;5091397;28;20538;-89
2022/05/18 10:39:08;;;;;;;0.10;0.10;;;;;;;;;;5091570;28;20017;-86
2022/05/18 10:41:45;;;;;;;0.10;0.10;;;;;;;;;;5091096;28;20075;-83
2022/05/18 10:44:16;;;;;;;0.10;0.10;;;;;;;;;;5091613;28;20048;-84
2022/05/18 10:46:42;;;;;;;0.10;0.10;;;;;;;;;;5091266;28;20107;-83
2022/05/18 10:49:10;;;;;;;0.10;0.10;;;;;;;;;;5091143;28;20496;-81
2022/05/18 10:51:39;;;;;;;0.10;0.10;;;;;;;;;;5086244;28;20063;-84
2022/05/18 10:54:28;;;;;;;0.10;0.10;;;;;;;;;;5089976;28;20023;-81
2022/05/18 10:57:11;;;;;;;0.10;0.10;;;;;;;;;;5087902;28;20020;-80
2022/05/18 10:59:42;;;;;;;0.10;0.10;;;;;;;;;;5086351;28;20024;-84
2022/05/18 11:02:08;;;;;;;0.10;0.10;;;;;;;;;;5091906;28;20462;-90
2022/05/18 11:04:37;;;;;;;0.10;0.10;;;;;;;;;;5090632;28;20112;-83
2022/05/18 11:07:04;;;;;;;0.10;0.10;;;;;;;;;;5091275;28;20087;-84
2022/05/18 11:09:31;;;;;;;0.10;0.10;;;;;;;;;;5090750;28;20468;-83
2022/05/18 11:11:57;;;;;;;0.10;0.10;;;;;;;;;;5089807;28;20073;-81
2022/05/18 11:14:38;;;;;;;0.10;0.10;;;;;;;;;;5090404;28;20387;-81
2022/05/18 11:17:06;;;;;;;0.10;0.10;;;;;;;;;;5088838;28;20031;-79
2022/05/18 11:19:32;;;;;;;0.08;0.08;;;;;;;;;;5090098;28;20020;-83
2022/05/18 11:22:06;;;;;;;0.10;0.10;;;;;;;;;;5089820;28;20059;-82
2022/05/18 11:24:33;;;;;;;0.10;0.10;;;;;;;;;;5090535;28;20020;-81
2022/05/18 11:27:20;;;;;;;0.10;0.10;;;;;;;;;;5091026;28;20429;-79
2022/05/18 11:30:01;;;;;;;0.10;0.10;;;;;;;;;;5085774;28;20032;-80
2022/05/18 11:32:33;;;;;;;0.10;0.10;;;;;;;;;;5087067;28;20167;-85
2022/05/18 11:35:21;;;;;;;0.10;0.10;;;;;;;;;;5090906;28;20034;-85
2022/05/18 11:38:02;;;;;;;0.13;0.13;;;;;;;;;;5084759;28;20051;-81
2022/05/18 11:40:40;;;;;;;0.10;0.10;;;;;;;;;;5091414;28;20032;-80
2022/05/18 11:43:28;;;;;;;0.10;0.10;;;;;;;;;;5091507;28;20040;-82
2022/05/18 11:45:57;;;;;;;0.10;0.10;;;;;;;;;;5089824;28;20032;-82
2022/05/18 11:48:35;;;;;;;0.10;0.10;;;;;;;;;;5092625;28;20024;-83
2022/05/18 11:51:18;;;;;;;0.10;0.10;;;;;;;;;;5095363;28;20051;-85
2022/05/18 11:54:05;;;;;;;0.10;0.10;;;;;;;;;;5095335;28;20032;-82
2022/05/18 11:56:46;;;;;;;0.10;0.10;;;;;;;;;;5095070;28;20024;-83
2022/05/18 12:01:55;;;;;;;0.10;0.10;;;;;;;;;;5094799;28;20072;-84
2022/05/18 12:04:24;;;;;;;0.10;0.10;;;;;;;;;;5095660;28;20036;-89
2022/05/18 12:07:02;;;;;;;0.08;0.08;;;;;;;;;;5097063;28;20032;-82
2022/05/18 12:09:52;;;;;;;0.10;0.10;;;;;;;;;;5099197;28;20395;-84
2022/05/18 12:12:24;;;;;;;0.10;0.10;;;;;;;;;;5094996;28;20108;-78
2022/05/18 12:15:07;;;;;;;0.00;0.00;;;;;;;;;;5093329;28;20032;-80
2022/05/18 12:17:41;;;;;;;0.10;0.10;;;;;;;;;;5096160;28;20024;-82
2022/05/18 12:20:07;;;;;;;0.10;0.10;;;;;;;;;;5099288;28;20032;-85
2022/05/18 12:22:54;;;;;;;0.10;0.10;;;;;;;;;;5097630;28;20044;-82
2022/05/18 12:25:21;;;;;;;0.10;0.10;;;;;;;;;;5095029;28;20028;-81
2022/05/18 12:27:48;;;;;;;0.10;0.10;;;;;;;;;;5106392;28;20053;-90
2022/05/18 12:30:17;;;;;;;0.00;0.00;;;;;;;;;;5106506;28;20480;-79
2022/05/18 12:32:44;;;;;;;0.10;0.10;;;;;;;;;;5094543;28;20047;-77
2022/05/18 12:35:15;;;;;;;0.10;0.10;;;;;;;;;;5092794;28;20016;-83
2022/05/18 12:37:47;;;;;;;0.10;0.10;;;;;;;;;;5094126;28;20077;-77
2022/05/18 12:40:16;;;;;;;0.10;0.10;;;;;;;;;;5094031;28;20017;-76
2022/05/18 12:42:48;;;;;;;0.10;0.10;;;;;;;;;;5093290;28;20078;-76
2022/05/18 12:45:26;;;;;;;0.00;0.00;;;;;;;;;;5093757;28;20044;-76
2022/05/18 12:48:03;;;;;;;0.10;0.10;;;;;;;;;;5093189;28;20032;-78
2022/05/18 12:50:32;;;;;;;0.10;0.10;;;;;;;;;;5093491;28;20062;-79
2022/05/18 12:53:01;;;;;;;0.10;0.10;;;;;;;;;;5093691;28;20475;-78
2022/05/18 12:55:38;;;;;;;0.10;0.10;;;;;;;;;;5093731;28;20031;-78
2022/05/18 12:58:10;;;;;;;0.10;0.10;;;;;;;;;;5092601;28;20058;-79
2022/05/18 13:00:42;;;;;;;0.08;0.08;;;;;;;;;;5091831;28;20039;-78
2022/05/18 13:03:11;;;;;;;0.10;0.10;;;;;;;;;;5092046;28;20028;-79
2022/05/18 13:05:40;;;;;;;0.00;0.00;;;;;;;;;;5093239;28;20031;-79
2022/05/18 13:08:18;;;;;;;0.10;0.10;;;;;;;;;;5093120;28;20495;-76
2022/05/18 13:11:03;;;;;;;0.10;0.10;;;;;;;;;;5091679;28;20036;-78
2022/05/18 13:13:34;;;;;;;0.08;0.08;;;;;;;;;;5091904;28;20028;-78
2022/05/18 13:16:01;;;;;;;0.10;0.10;;;;;;;;;;5091850;28;20024;-78
2022/05/18 13:18:30;;;;;;;0.08;0.08;;;;;;;;;;5093394;28;20028;-79
2022/05/18 13:21:05;;;;;;;0.10;0.10;;;;;;;;;;5092860;28;20035;-77
2022/05/18 13:23:31;;;;;;;0.10;0.10;;;;;;;;;;5072653;28;20424;-81
2022/05/18 13:26:16;;;;;;;0.10;0.10;;;;;;;;;;5073172;28;20043;-82
2022/05/18 13:28:43;;;;;;;0.10;0.10;;;;;;;;;;5072923;28;20031;-79
2022/05/18 13:31:09;;;;;;;0.10;0.10;;;;;;;;;;5071754;28;20020;-83
2022/05/18 13:33:54;;;;;;;0.10;0.10;;;;;;;;;;5071668;28;20538;-89
2022/05/18 13:36:52;;;;;;;0.20;0.20;;;;;;;;;;5072842;28;20032;-91
2022/05/18 13:39:22;;;;;;;0.10;0.10;;;;;;;;;;5039395;28;20532;-88
2022/05/18 13:41:48;;;;;;;0.10;0.10;;;;;;;;;;5071464;28;20032;-89
2022/05/18 13:44:14;;;;;;;0.10;0.10;;;;;;;;;;5072788;28;20024;-87
2022/05/18 13:46:41;;;;;;;0.10;0.10;;;;;;;;;;5073002;28;20449;-92
2022/05/18 13:49:18;;;;;;;0.10;0.10;;;;;;;;;;5072811;28;20027;-91
2022/05/18 13:51:47;;;;;;;0.10;0.10;;;;;;;;;;5072999;28;20032;-90
2022/05/18 13:54:18;;;;;;;0.13;0.13;;;;;;;;;;5079536;28;20442;-88
2022/05/18 13:56:49;;;;;;;0.08;0.08;;;;;;;;;;5094000;28;20024;-90
2022/05/18 13:59:19;;;;;;;0.10;0.10;;;;;;;;;;5093720;28;20024;-87
2022/05/18 14:01:47;;;;;;;0.10;0.10;;;;;;;;;;5091648;28;20135;-87
2022/05/18 14:04:15;;;;;;;0.10;0.10;;;;;;;;;;5093354;28;20024;-89
2022/05/18 14:06:41;;;;;;;0.10;0.10;;;;;;;;;;5092979;28;20406;-79
2022/05/18 14:09:07;;;;;;;0.10;0.10;;;;;;;;;;5092971;28;20468;-89
2022/05/18 14:11:33;;;;;;;0.10;0.10;;;;;;;;;;5104645;28;20027;-93
2022/05/18 14:14:01;;;;;;;0.10;0.10;;;;;;;;;;5101506;28;20027;-87
2022/05/18 14:16:32;;;;;;;0.10;0.10;;;;;;;;;;5096091;28;20027;-81
2022/05/18 14:18:59;;;;;;;0.10;0.10;;;;;;;;;;5100035;28;20030;-94
2022/05/18 14:21:25;;;;;;;0.10;0.10;;;;;;;;;;5096137;28;20552;-95
2022/05/18 14:23:55;;;;;;;0.10;0.10;;;;;;;;;;5091745;28;20515;-95
2022/05/18 14:26:24;;;;;;;0.10;0.10;;;;;;;;;;5092086;28;20028;-93
2022/05/18 14:28:51;;;;;;;0.10;0.10;;;;;;;;;;5092347;28;20395;-80
2022/05/18 14:31:20;;;;;;;0.10;0.10;;;;;;;;;;5090447;28;20035;-78
2022/05/18 14:33:48;;;;;;;0.10;0.10;;;;;;;;;;5091542;28;20077;-90
2022/05/18 14:36:33;;;;;;;0.10;0.10;;;;;;;;;;5091786;28;20039;-86
2022/05/18 14:39:03;;;;;;;0.10;0.10;;;;;;;;;;5091869;28;20031;-79
2022/05/18 14:41:35;;;;;;;0.05;0.05;;;;;;;;;;5091209;28;20062;-79
2022/05/18 14:44:01;;;;;;;0.10;0.10;;;;;;;;;;5092274;28;20024;-90
2022/05/18 14:46:29;;;;;;;0.05;0.05;;;;;;;;;;5106990;28;20015;-95
2022/05/18 14:49:05;;;;;;;0.10;0.10;;;;;;;;;;5104902;28;20024;-92
2022/05/18 14:51:31;;;;;;;0.10;0.10;;;;;;;;;;5092899;28;20085;-93
2022/05/18 14:53:59;;;;;;;0.10;0.10;;;;;;;;;;5092599;28;20032;-78
2022/05/18 14:56:28;;;;;;;0.10;0.10;;;;;;;;;;5092641;28;20025;-91
2022/05/18 14:58:56;;;;;;;0.10;0.10;;;;;;;;;;5091442;28;20031;-90
2022/05/18 15:01:25;;;;;;;0.10;0.10;;;;;;;;;;5092185;28;20073;-92
2022/05/18 15:03:51;;;;;;;0.10;0.10;;;;;;;;;;5090887;28;20028;-92
2022/05/18 15:06:18;;;;;;;0.10;0.10;;;;;;;;;;5091982;28;20028;-79
2022/05/18 15:08:51;;;;;;;0.10;0.10;;;;;;;;;;5091352;28;20035;-79
2022/05/18 15:11:19;;;;;;;0.10;0.10;;;;;;;;;;5091457;28;20425;-77
2022/05/18 15:13:53;;;;;;;0.10;0.10;;;;;;;;;;5091137;28;20386;-79
2022/05/18 15:16:28;;;;;;;0.10;0.10;;;;;;;;;;5091544;28;20710;-79